createdAt,value
2023-08-15T00:00:47.628Z,98.68
2023-08-15T00:01:47.630Z,98.98
2023-08-15T00:02:47.681Z,98.78
2023-08-15T00:03:47.666Z,98.98
2023-08-15T00:04:47.587Z,98.98
2023-08-15T00:05:47.597Z,98.98
2023-08-15T00:06:47.559Z,98.88
2023-08-15T00:07:47.577Z,98.78
2023-08-15T00:08:47.527Z,98.58
2023-08-15T00:09:47.525Z,98.88
2023-08-15T00:10:47.537Z,99.08
2023-08-15T00:11:47.515Z,98.98
2023-08-15T00:12:47.543Z,99.08
2023-08-15T00:13:47.502Z,99.08
2023-08-15T00:14:47.471Z,99.13
2023-08-15T00:15:47.469Z,99.33
2023-08-15T00:16:47.575Z,99.52
2023-08-15T00:17:47.462Z,99.73
2023-08-15T00:18:47.440Z,99.99
2023-08-15T00:19:47.416Z,99.99
2023-08-15T00:20:47.411Z,99.99
2023-08-15T00:21:47.416Z,99.99
2023-08-15T00:22:47.381Z,99.99
2023-08-15T00:23:47.380Z,99.99
2023-08-15T00:24:47.364Z,99.99
2023-08-15T00:25:47.373Z,99.99
2023-08-15T00:26:47.400Z,99.99
2023-08-15T00:27:47.324Z,99.99
2023-08-15T00:28:47.324Z,99.99
2023-08-15T00:29:47.397Z,99.99
2023-08-15T00:30:47.318Z,99.99
2023-08-15T00:31:47.336Z,99.99
2023-08-15T00:32:47.346Z,99.99
2023-08-15T00:33:47.260Z,99.99
2023-08-15T00:34:47.249Z,99.99
2023-08-15T00:35:47.263Z,99.99
2023-08-15T00:36:47.242Z,99.99
2023-08-15T00:37:47.271Z,99.99
2023-08-15T00:38:47.218Z,99.99
2023-08-15T00:39:47.203Z,99.99
2023-08-15T00:40:47.269Z,99.99
2023-08-15T00:41:47.180Z,99.99
2023-08-15T00:42:47.174Z,99.99
2023-08-15T00:43:47.185Z,99.99
2023-08-15T00:44:47.215Z,99.99
2023-08-15T00:45:47.148Z,99.99
2023-08-15T00:46:47.176Z,99.99
2023-08-15T00:47:47.141Z,99.99
2023-08-15T00:48:47.139Z,99.99
2023-08-15T00:49:47.128Z,99.99
2023-08-15T00:50:47.090Z,99.99
2023-08-15T00:51:49.911Z,99.99
2023-08-15T00:52:47.076Z,99.99
2023-08-15T00:53:47.063Z,99.99
2023-08-15T00:54:47.058Z,99.99
2023-08-15T00:55:47.027Z,99.99
2023-08-15T00:56:47.032Z,99.99
2023-08-15T00:57:47.010Z,99.99
2023-08-15T00:58:47.018Z,99.99
2023-08-15T00:59:47.035Z,99.99
2023-08-15T01:00:46.985Z,99.99
2023-08-15T01:01:47.021Z,99.99
2023-08-15T01:02:47.026Z,99.99
2023-08-15T01:03:47.268Z,99.99
2023-08-15T01:04:47.014Z,99.99
2023-08-15T01:05:46.918Z,99.99
2023-08-15T01:06:46.927Z,99.99
2023-08-15T01:07:46.897Z,99.99
2023-08-15T01:08:46.892Z,99.99
2023-08-15T01:09:46.891Z,99.99
2023-08-15T01:10:46.876Z,99.99
2023-08-15T01:11:46.881Z,99.99
2023-08-15T01:12:46.862Z,99.99
2023-08-15T01:13:46.833Z,99.99
2023-08-15T01:14:46.832Z,99.99
2023-08-15T01:15:46.834Z,99.99
2023-08-15T01:16:46.859Z,99.99
2023-08-15T01:17:46.843Z,99.99
2023-08-15T01:18:46.784Z,99.99
2023-08-15T01:19:46.772Z,99.99
2023-08-15T01:20:46.785Z,99.99
2023-08-15T01:21:46.769Z,99.99
2023-08-15T01:22:46.746Z,99.99
2023-08-15T01:23:46.717Z,99.99
2023-08-15T01:24:46.726Z,99.99
2023-08-15T01:25:46.717Z,99.99
2023-08-15T01:26:46.686Z,99.99
2023-08-15T01:27:46.850Z,99.99
2023-08-15T01:28:46.683Z,99.99
2023-08-15T01:29:46.672Z,99.99
2023-08-15T01:30:46.668Z,99.99
2023-08-15T01:31:46.674Z,99.99
2023-08-15T01:32:46.663Z,99.99
2023-08-15T01:33:46.633Z,99.99
2023-08-15T01:34:46.611Z,99.99
2023-08-15T01:35:46.711Z,99.99
2023-08-15T01:36:46.612Z,99.99
2023-08-15T01:37:46.585Z,99.99
2023-08-15T01:38:46.586Z,99.99
2023-08-15T01:39:46.650Z,99.99
2023-08-15T01:40:46.538Z,99.99
2023-08-15T01:41:46.556Z,99.99
2023-08-15T01:42:46.530Z,99.99
2023-08-15T01:43:46.513Z,99.99
2023-08-15T01:44:46.502Z,99.99
2023-08-15T01:45:46.504Z,99.99
2023-08-15T01:46:46.523Z,99.99
2023-08-15T01:47:46.509Z,99.99
2023-08-15T01:48:46.458Z,99.99
2023-08-15T01:49:46.460Z,99.99
2023-08-15T01:50:46.455Z,99.99
2023-08-15T01:51:46.490Z,99.99
2023-08-15T01:52:46.417Z,99.99
2023-08-15T01:53:46.409Z,99.99
2023-08-15T01:54:46.398Z,99.99
2023-08-15T01:55:46.387Z,99.99
2023-08-15T01:56:46.430Z,99.99
2023-08-15T01:57:46.371Z,99.99
2023-08-15T01:58:46.351Z,99.99
2023-08-15T01:59:46.353Z,99.99
2023-08-15T02:00:46.347Z,99.99
2023-08-15T02:01:46.463Z,99.99
2023-08-15T02:02:46.418Z,99.99
2023-08-15T02:03:46.387Z,99.99
2023-08-15T02:04:46.278Z,99.99
2023-08-15T02:05:46.326Z,99.99
2023-08-15T02:06:46.267Z,99.99
2023-08-15T02:07:46.268Z,99.99
2023-08-15T02:08:46.243Z,99.99
2023-08-15T02:09:46.247Z,99.99
2023-08-15T02:10:46.301Z,99.99
2023-08-15T02:11:46.236Z,99.99
2023-08-15T02:12:46.194Z,99.99
2023-08-15T02:13:46.226Z,99.99
2023-08-15T02:14:46.189Z,99.99
2023-08-15T02:15:46.233Z,99.99
2023-08-15T02:16:46.179Z,99.99
2023-08-15T02:17:46.204Z,99.99
2023-08-15T02:18:46.133Z,99.99
2023-08-15T02:19:46.123Z,99.99
2023-08-15T02:20:46.131Z,99.99
2023-08-15T02:21:46.110Z,99.99
2023-08-15T02:22:46.121Z,99.99
2023-08-15T02:23:46.118Z,99.99
2023-08-15T02:24:46.062Z,99.99
2023-08-15T02:25:46.121Z,99.99
2023-08-15T02:26:46.051Z,99.99
2023-08-15T02:27:46.072Z,99.99
2023-08-15T02:28:46.048Z,99.99
2023-08-15T02:29:46.096Z,99.99
2023-08-15T02:30:46.018Z,99.99
2023-08-15T02:31:46.010Z,99.99
2023-08-15T02:32:46.008Z,99.99
2023-08-15T02:33:46.012Z,99.99
2023-08-15T02:34:45.989Z,99.99
2023-08-15T02:35:45.965Z,99.99
2023-08-15T02:36:45.999Z,99.99
2023-08-15T02:37:45.944Z,99.99
2023-08-15T02:38:45.977Z,99.99
2023-08-15T02:39:45.914Z,99.99
2023-08-15T02:40:45.941Z,99.99
2023-08-15T02:41:45.925Z,99.99
2023-08-15T02:42:45.889Z,99.99
2023-08-15T02:43:45.909Z,99.99
2023-08-15T02:44:45.860Z,99.99
2023-08-15T02:45:45.858Z,99.99
2023-08-15T02:46:45.936Z,99.99
2023-08-15T02:47:45.867Z,99.99
2023-08-15T02:48:45.815Z,99.99
2023-08-15T02:49:45.842Z,99.99
2023-08-15T02:50:45.797Z,99.99
2023-08-15T02:51:45.836Z,99.99
2023-08-15T02:52:45.797Z,99.99
2023-08-15T02:53:45.789Z,99.99
2023-08-15T02:54:45.775Z,99.99
2023-08-15T02:55:45.749Z,99.99
2023-08-15T02:56:45.738Z,99.99
2023-08-15T02:57:45.735Z,99.99
2023-08-15T02:58:45.748Z,99.99
2023-08-15T02:59:45.718Z,99.99
2023-08-15T03:00:45.718Z,99.99
2023-08-15T03:01:45.709Z,99.99
2023-08-15T03:02:45.792Z,99.99
2023-08-15T03:03:45.666Z,99.99
2023-08-15T03:04:45.680Z,99.99
2023-08-15T03:05:45.662Z,99.99
2023-08-15T03:06:45.630Z,99.99
2023-08-15T03:07:45.629Z,99.99
2023-08-15T03:08:45.603Z,99.99
2023-08-15T03:09:45.609Z,99.99
2023-08-15T03:10:45.629Z,99.99
2023-08-15T03:11:45.577Z,99.99
2023-08-15T03:12:45.562Z,99.99
2023-08-15T03:13:45.552Z,99.99
2023-08-15T03:14:45.559Z,99.99
2023-08-15T03:15:45.576Z,99.99
2023-08-15T03:16:45.548Z,99.99
2023-08-15T03:17:45.547Z,99.99
2023-08-15T03:18:45.511Z,99.99
2023-08-15T03:19:45.505Z,99.99
2023-08-15T03:20:45.507Z,99.99
2023-08-15T03:21:45.547Z,99.99
2023-08-15T03:22:45.459Z,99.99
2023-08-15T03:23:45.458Z,99.99
2023-08-15T03:24:45.456Z,99.99
2023-08-15T03:25:45.451Z,99.99
2023-08-15T03:26:45.420Z,99.99
2023-08-15T03:27:45.448Z,99.99
2023-08-15T03:28:45.399Z,99.99
2023-08-15T03:29:45.394Z,99.99
2023-08-15T03:30:45.417Z,99.99
2023-08-15T03:31:45.448Z,99.99
2023-08-15T03:32:45.428Z,99.99
2023-08-15T03:33:45.364Z,99.99
2023-08-15T03:34:45.340Z,99.99
2023-08-15T03:35:45.346Z,99.99
2023-08-15T03:36:45.316Z,99.99
2023-08-15T03:37:45.337Z,99.99
2023-08-15T03:38:45.297Z,99.99
2023-08-15T03:39:45.298Z,99.99
2023-08-15T03:40:45.279Z,99.99
2023-08-15T03:41:45.406Z,99.99
2023-08-15T03:42:45.259Z,99.99
2023-08-15T03:43:45.253Z,99.99
2023-08-15T03:44:45.225Z,99.99
2023-08-15T03:45:45.258Z,99.99
2023-08-15T03:46:45.289Z,99.99
2023-08-15T03:47:45.273Z,99.99
2023-08-15T03:48:45.178Z,99.99
2023-08-15T03:49:45.180Z,99.99
2023-08-15T03:50:45.161Z,99.99
2023-08-15T03:51:47.456Z,99.99
2023-08-15T03:52:45.152Z,99.99
2023-08-15T03:53:45.137Z,99.99
2023-08-15T03:54:45.125Z,99.99
2023-08-15T03:55:45.123Z,99.99
2023-08-15T03:56:45.101Z,99.99
2023-08-15T03:57:45.113Z,99.99
2023-08-15T03:58:45.032Z,99.99
2023-08-15T03:59:45.072Z,99.99
2023-08-15T04:00:45.065Z,99.99
2023-08-15T04:01:45.023Z,99.99
2023-08-15T04:02:45.064Z,99.99
2023-08-15T04:03:45.015Z,99.99
2023-08-15T04:04:45.007Z,99.99
2023-08-15T04:05:44.968Z,99.99
2023-08-15T04:06:44.960Z,99.99
2023-08-15T04:07:44.950Z,99.99
2023-08-15T04:08:44.912Z,99.99
2023-08-15T04:09:44.910Z,99.99
2023-08-15T04:10:44.904Z,99.99
2023-08-15T04:11:44.875Z,99.99
2023-08-15T04:12:44.890Z,99.99
2023-08-15T04:13:44.866Z,99.99
2023-08-15T04:14:44.862Z,99.99
2023-08-15T04:15:44.886Z,99.99
2023-08-15T04:16:45.735Z,99.99
2023-08-15T04:17:44.883Z,99.99
2023-08-15T04:18:44.816Z,99.99
2023-08-15T04:19:44.786Z,99.99
2023-08-15T04:20:44.802Z,99.99
2023-08-15T04:21:44.841Z,99.99
2023-08-15T04:22:44.789Z,99.99
2023-08-15T04:23:44.756Z,99.99
2023-08-15T04:24:44.741Z,99.99
2023-08-15T04:25:44.736Z,99.99
2023-08-15T04:26:44.737Z,99.99
2023-08-15T04:27:44.745Z,99.99
2023-08-15T04:28:44.720Z,99.99
2023-08-15T04:29:44.723Z,99.99
2023-08-15T04:30:44.685Z,99.99
2023-08-15T04:31:44.702Z,99.99
2023-08-15T04:32:44.699Z,99.99
2023-08-15T04:33:44.657Z,99.99
2023-08-15T04:34:44.666Z,99.99
2023-08-15T04:35:44.645Z,99.99
2023-08-15T04:36:44.626Z,99.99
2023-08-15T04:37:44.635Z,99.99
2023-08-15T04:38:44.600Z,99.99
2023-08-15T04:39:44.572Z,99.99
2023-08-15T04:40:44.707Z,99.99
2023-08-15T04:41:44.620Z,99.99
2023-08-15T04:42:44.540Z,99.99
2023-08-15T04:43:44.564Z,99.99
2023-08-15T04:44:44.542Z,99.99
2023-08-15T04:45:45.096Z,99.99
2023-08-15T04:46:44.514Z,99.99
2023-08-15T04:47:44.558Z,99.99
2023-08-15T04:48:44.513Z,99.99
2023-08-15T04:49:44.476Z,99.99
2023-08-15T04:50:44.494Z,99.99
2023-08-15T04:51:44.461Z,99.99
2023-08-15T04:52:44.488Z,99.99
2023-08-15T04:53:44.442Z,99.99
2023-08-15T04:54:44.448Z,99.99
2023-08-15T04:55:44.427Z,99.99
2023-08-15T04:56:44.385Z,99.99
2023-08-15T04:57:44.383Z,99.99
2023-08-15T04:58:44.387Z,99.99
2023-08-15T04:59:44.396Z,99.99
2023-08-15T05:00:44.347Z,99.99
2023-08-15T05:01:44.390Z,99.99
2023-08-15T05:02:44.393Z,99.99
2023-08-15T05:03:44.355Z,99.99
2023-08-15T05:04:44.310Z,99.99
2023-08-15T05:05:44.377Z,99.99
2023-08-15T05:06:44.304Z,99.99
2023-08-15T05:07:44.318Z,99.99
2023-08-15T05:08:44.310Z,99.99
2023-08-15T05:09:44.253Z,99.99
2023-08-15T05:10:44.274Z,99.99
2023-08-15T05:11:44.230Z,99.99
2023-08-15T05:12:44.221Z,99.99
2023-08-15T05:13:44.231Z,99.99
2023-08-15T05:14:44.221Z,99.99
2023-08-15T05:15:44.236Z,99.99
2023-08-15T05:16:44.188Z,99.99
2023-08-15T05:17:44.208Z,99.99
2023-08-15T05:18:44.182Z,99.99
2023-08-15T05:19:44.159Z,99.99
2023-08-15T05:20:44.136Z,99.99
2023-08-15T05:21:44.166Z,99.99
2023-08-15T05:22:44.144Z,99.99
2023-08-15T05:23:44.134Z,99.99
2023-08-15T05:24:44.100Z,99.99
2023-08-15T05:25:44.105Z,99.99
2023-08-15T05:26:44.079Z,99.99
2023-08-15T05:27:44.062Z,99.99
2023-08-15T05:28:46.916Z,99.99
2023-08-15T05:29:44.341Z,99.99
2023-08-15T05:30:44.041Z,99.99
2023-08-15T05:31:44.076Z,99.99
2023-08-15T05:32:44.034Z,99.99
2023-08-15T05:33:44.005Z,99.99
2023-08-15T05:34:44.299Z,99.99
2023-08-15T05:35:44.026Z,99.99
2023-08-15T05:36:44.009Z,99.99
2023-08-15T05:37:43.962Z,99.99
2023-08-15T05:38:43.947Z,99.99
2023-08-15T05:39:43.942Z,99.99
2023-08-15T05:40:43.963Z,99.99
2023-08-15T05:41:43.923Z,99.99
2023-08-15T05:42:43.931Z,99.99
2023-08-15T05:43:43.920Z,99.99
2023-08-15T05:44:43.899Z,99.99
2023-08-15T05:45:43.889Z,99.99
2023-08-15T05:46:43.903Z,99.99
2023-08-15T05:47:43.870Z,99.99
2023-08-15T05:48:43.847Z,99.99
2023-08-15T05:49:43.846Z,99.99
2023-08-15T05:50:43.861Z,99.99
2023-08-15T05:51:43.834Z,99.99
2023-08-15T05:52:43.959Z,99.99
2023-08-15T05:53:43.839Z,99.99
2023-08-15T05:54:43.788Z,99.99
2023-08-15T05:55:43.782Z,99.99
2023-08-15T05:56:43.776Z,99.99
2023-08-15T05:57:43.756Z,99.99
2023-08-15T05:58:43.763Z,99.99
2023-08-15T05:59:43.750Z,99.99
2023-08-15T06:00:43.739Z,99.99
2023-08-15T06:01:43.701Z,99.99
2023-08-15T06:02:43.773Z,99.99
2023-08-15T06:03:52.560Z,99.99
2023-08-15T06:04:43.716Z,99.99
2023-08-15T06:05:43.756Z,99.99
2023-08-15T06:06:43.697Z,99.99
2023-08-15T06:07:43.677Z,99.99
2023-08-15T06:08:43.648Z,99.99
2023-08-15T06:09:43.636Z,99.99
2023-08-15T06:10:43.611Z,99.99
2023-08-15T06:11:43.742Z,99.99
2023-08-15T06:12:43.625Z,99.99
2023-08-15T06:13:43.588Z,99.99
2023-08-15T06:14:43.589Z,99.99
2023-08-15T06:15:43.574Z,99.99
2023-08-15T06:16:43.608Z,99.99
2023-08-15T06:17:43.566Z,99.99
2023-08-15T06:18:43.597Z,99.99
2023-08-15T06:19:43.518Z,99.99
2023-08-15T06:20:43.510Z,99.99
2023-08-15T06:21:43.503Z,99.99
2023-08-15T06:22:43.510Z,99.99
2023-08-15T06:23:43.554Z,99.99
2023-08-15T06:24:43.498Z,99.99
2023-08-15T06:25:43.464Z,99.99
2023-08-15T06:26:43.573Z,99.99
2023-08-15T06:27:43.483Z,99.99
2023-08-15T06:28:43.423Z,99.99
2023-08-15T06:29:43.416Z,99.99
2023-08-15T06:30:43.451Z,99.99
2023-08-15T06:31:43.399Z,99.99
2023-08-15T06:32:43.418Z,99.99
2023-08-15T06:33:43.386Z,99.99
2023-08-15T06:34:43.359Z,99.99
2023-08-15T06:35:43.349Z,99.99
2023-08-15T06:36:43.344Z,99.99
2023-08-15T06:37:43.334Z,99.99
2023-08-15T06:38:43.351Z,99.99
2023-08-15T06:39:43.310Z,99.99
2023-08-15T06:40:43.301Z,99.99
2023-08-15T06:41:43.284Z,99.99
2023-08-15T06:42:43.282Z,99.99
2023-08-15T06:43:43.291Z,99.99
2023-08-15T06:44:43.311Z,99.99
2023-08-15T06:45:43.301Z,99.49
2023-08-15T06:47:40.422Z,99.63
2023-08-15T06:48:41.393Z,98.73
2023-08-15T06:49:41.372Z,98.73
2023-08-15T06:50:41.394Z,98.83
2023-08-15T06:51:41.339Z,98.63
2023-08-15T06:52:41.359Z,97.53
2023-08-15T06:53:41.361Z,97.88
2023-08-15T06:54:41.349Z,97.18
2023-08-15T06:55:41.316Z,97.38
2023-08-15T06:56:41.289Z,96.98
2023-08-15T06:57:41.285Z,96.98
2023-08-15T06:58:41.266Z,96.58
2023-08-15T06:59:41.359Z,96.78
2023-08-15T07:00:41.307Z,96.78
2023-08-15T07:01:41.255Z,96.98
2023-08-15T07:02:41.335Z,96.58
2023-08-15T07:03:41.283Z,96.18
2023-08-15T07:04:41.189Z,95.94
2023-08-15T07:05:41.214Z,94.93
2023-08-15T07:06:41.166Z,94.49
2023-08-15T07:07:41.191Z,93.89
2023-08-15T07:08:41.178Z,92.79
2023-08-15T07:09:41.208Z,93.13
2023-08-15T07:10:41.144Z,92.74
2023-08-15T07:11:41.214Z,93.13
2023-08-15T07:12:41.119Z,93.24
2023-08-15T07:13:41.120Z,92.49
2023-08-15T07:14:41.102Z,93.09
2023-08-15T07:15:41.081Z,92.49
2023-08-15T07:16:41.113Z,92.89
2023-08-15T07:17:41.077Z,91.79
2023-08-15T07:18:41.054Z,91.89
2023-08-15T07:19:41.048Z,90.84
2023-08-15T07:20:41.020Z,89.65
2023-08-15T07:21:41.064Z,90.65
2023-08-15T07:22:40.993Z,90.25
2023-08-15T07:23:41.023Z,88.85
2023-08-15T07:24:40.992Z,88.81
2023-08-15T07:25:40.992Z,87.21
2023-08-15T07:26:40.997Z,87.51
2023-08-15T07:27:40.966Z,88.31
2023-08-15T07:28:40.945Z,87.45
2023-08-15T07:29:40.955Z,85.25
2023-08-15T07:30:40.927Z,84.15
2023-08-15T07:31:40.964Z,84.85
2023-08-15T07:32:40.986Z,84.15
2023-08-15T07:33:40.910Z,82.65
2023-08-15T07:34:40.914Z,80.89
2023-08-15T07:35:40.869Z,80.19
2023-08-15T07:36:40.856Z,80.79
2023-08-15T07:37:40.907Z,80.49
2023-08-15T07:38:40.851Z,80.26
2023-08-15T07:39:40.848Z,80.45
2023-08-15T07:40:40.843Z,79.72
2023-08-15T07:41:40.812Z,79.02
2023-08-15T07:42:40.801Z,77.92
2023-08-15T07:43:40.875Z,78.18
2023-08-15T07:44:40.773Z,78.88
2023-08-15T07:45:40.823Z,77.68
2023-08-15T07:46:41.056Z,78.81
2023-08-15T07:47:40.815Z,79.28
2023-08-15T07:48:40.735Z,80.74
2023-08-15T07:49:40.830Z,78.64
2023-08-15T07:50:40.719Z,77.74
2023-08-15T07:51:40.713Z,78.58
2023-08-15T07:52:40.746Z,78.22
2023-08-15T07:53:40.685Z,80.51
2023-08-15T07:54:40.666Z,79.61
2023-08-15T07:55:40.707Z,81.01
2023-08-15T07:56:40.674Z,80.32
2023-08-15T07:57:40.663Z,79.52
2023-08-15T07:58:40.696Z,79.72
2023-08-15T07:59:40.641Z,78.22
2023-08-15T08:00:40.788Z,78.81
2023-08-15T08:01:40.883Z,79.11
2023-08-15T08:02:40.619Z,78.88
2023-08-15T08:03:40.587Z,78.18
2023-08-15T08:04:40.669Z,78.08
2023-08-15T08:05:40.628Z,78.08
2023-08-15T08:06:41.459Z,79.78
2023-08-15T08:07:40.600Z,78.88
2023-08-15T08:08:40.607Z,79.17
2023-08-15T08:09:40.589Z,81.27
2023-08-15T08:10:40.599Z,79.74
2023-08-15T08:11:40.496Z,78.11
2023-08-15T08:12:40.487Z,78.00
2023-08-15T08:13:40.515Z,77.51
2023-08-15T08:14:48.790Z,76.91
2023-08-15T08:15:40.477Z,77.01
2023-08-15T08:16:40.456Z,77.61
2023-08-15T08:17:40.521Z,75.91
2023-08-15T08:18:40.434Z,74.91
2023-08-15T08:19:40.418Z,75.21
2023-08-15T08:20:40.404Z,74.41
2023-08-15T08:21:40.401Z,73.91
2023-08-15T08:22:40.384Z,74.48
2023-08-15T08:23:40.403Z,73.08
2023-08-15T08:24:40.398Z,72.85
2023-08-15T08:25:40.409Z,73.55
2023-08-15T08:26:40.352Z,73.14
2023-08-15T08:27:40.336Z,73.74
2023-08-15T08:28:40.332Z,74.21
2023-08-15T08:29:40.354Z,74.80
2023-08-15T08:30:40.321Z,72.28
2023-08-15T08:31:40.341Z,72.68
2023-08-15T08:32:40.311Z,71.98
2023-08-15T08:33:40.314Z,72.58
2023-08-15T08:34:40.284Z,71.69
2023-08-15T08:35:40.264Z,71.92
2023-08-15T08:36:40.252Z,72.91
2023-08-15T08:37:40.327Z,71.32
2023-08-15T08:38:40.223Z,72.61
2023-08-15T08:39:40.223Z,72.61
2023-08-15T08:40:40.210Z,73.01
2023-08-15T08:41:40.218Z,72.81
2023-08-15T08:42:40.169Z,74.41
2023-08-15T08:43:40.170Z,74.07
2023-08-15T08:44:40.351Z,74.37
2023-08-15T08:45:40.167Z,73.94
2023-08-15T08:46:40.132Z,73.44
2023-08-15T08:47:40.174Z,72.14
2023-08-15T08:48:40.120Z,71.55
2023-08-15T08:49:40.095Z,71.35
2023-08-15T08:50:40.117Z,71.35
2023-08-15T08:51:40.090Z,71.78
2023-08-15T08:52:40.077Z,71.58
2023-08-15T08:53:40.067Z,71.48
2023-08-15T08:54:55.916Z,72.78
2023-08-15T08:55:40.124Z,71.58
2023-08-15T08:56:40.035Z,72.64
2023-08-15T08:57:40.028Z,72.34
2023-08-15T08:58:40.007Z,70.95
2023-08-15T08:59:40.247Z,71.84
2023-08-15T09:00:40.029Z,71.75
2023-08-15T09:01:40.022Z,71.55
2023-08-15T09:02:40.083Z,71.15
2023-08-15T09:03:40.033Z,70.75
2023-08-15T09:04:39.975Z,71.75
2023-08-15T09:05:39.943Z,71.55
2023-08-15T09:06:39.934Z,71.25
2023-08-15T09:07:39.916Z,71.25
2023-08-15T09:08:39.910Z,71.35
2023-08-15T09:09:39.917Z,71.25
2023-08-15T09:10:39.900Z,72.61
2023-08-15T09:11:39.878Z,71.91
2023-08-15T09:12:39.969Z,72.77
2023-08-15T09:13:39.873Z,72.47
2023-08-15T09:14:39.860Z,71.45
2023-08-15T09:15:40.029Z,69.66
2023-08-15T09:16:39.838Z,69.76
2023-08-15T09:17:40.090Z,70.19
2023-08-15T09:18:39.821Z,70.48
2023-08-15T09:19:39.810Z,69.49
2023-08-15T09:20:39.820Z,71.18
2023-08-15T09:21:39.772Z,70.75
2023-08-15T09:22:39.797Z,69.56
2023-08-15T09:23:39.756Z,69.56
2023-08-15T09:24:39.753Z,69.46
2023-08-15T09:25:39.729Z,68.96
2023-08-15T09:26:39.772Z,69.23
2023-08-15T09:27:39.736Z,68.86
2023-08-15T09:28:39.746Z,70.25
2023-08-15T09:29:39.691Z,70.06
2023-08-15T09:30:39.676Z,69.56
2023-08-15T09:31:39.814Z,69.96
2023-08-15T09:32:39.704Z,69.66
2023-08-15T09:33:39.646Z,69.36
2023-08-15T09:34:39.648Z,68.37
2023-08-15T09:35:49.105Z,68.37
2023-08-15T09:36:39.635Z,67.97
2023-08-15T09:37:39.622Z,68.16
2023-08-15T09:38:39.601Z,67.57
2023-08-15T09:39:39.583Z,67.83
2023-08-15T09:40:39.592Z,68.13
2023-08-15T09:41:39.573Z,65.45
2023-08-15T09:42:39.594Z,66.25
2023-08-15T09:43:39.540Z,64.76
2023-08-15T09:44:39.530Z,65.95
2023-08-15T09:45:39.519Z,66.25
2023-08-15T09:46:39.531Z,65.65
2023-08-15T09:47:39.584Z,67.60
2023-08-15T09:48:39.504Z,65.62
2023-08-15T09:49:39.480Z,65.42
2023-08-15T09:50:39.512Z,66.08
2023-08-15T09:51:39.453Z,64.79
2023-08-15T09:52:39.436Z,64.70
2023-08-15T09:53:39.465Z,65.09
2023-08-15T09:54:39.474Z,64.76
2023-08-15T09:55:39.433Z,64.17
2023-08-15T09:56:39.402Z,64.47
2023-08-15T09:57:39.393Z,64.27
2023-08-15T09:58:39.390Z,63.90
2023-08-15T09:59:39.373Z,63.80
2023-08-15T10:00:39.370Z,64.99
2023-08-15T10:01:39.435Z,64.76
2023-08-15T10:02:39.347Z,67.24
2023-08-15T10:03:39.436Z,63.15
2023-08-15T10:04:39.360Z,63.64
2023-08-15T10:05:39.344Z,63.34
2023-08-15T10:06:39.307Z,64.50
2023-08-15T10:07:39.302Z,65.09
2023-08-15T10:08:39.296Z,62.88
2023-08-15T10:09:39.287Z,64.28
2023-08-15T10:10:39.292Z,62.26
2023-08-15T10:11:39.272Z,62.16
2023-08-15T10:12:39.235Z,61.27
2023-08-15T10:13:39.256Z,60.97
2023-08-15T10:14:39.227Z,60.68
2023-08-15T10:15:39.229Z,61.67
2023-08-15T10:16:39.342Z,59.92
2023-08-15T10:17:39.418Z,59.45
2023-08-15T10:18:39.350Z,61.23
2023-08-15T10:19:39.162Z,61.93
2023-08-15T10:20:39.177Z,62.92
2023-08-15T10:21:39.166Z,62.72
2023-08-15T10:22:39.171Z,62.42
2023-08-15T10:23:39.144Z,62.82
2023-08-15T10:24:39.229Z,61.13
2023-08-15T10:25:39.156Z,62.19
2023-08-15T10:26:39.121Z,62.42
2023-08-15T10:27:39.128Z,61.76
2023-08-15T10:28:39.110Z,62.02
2023-08-15T10:29:39.080Z,62.79
2023-08-15T10:30:39.106Z,61.60
2023-08-15T10:31:39.072Z,61.00
2023-08-15T10:32:39.131Z,61.30
2023-08-15T10:33:39.079Z,60.71
2023-08-15T10:34:39.386Z,62.75
2023-08-15T10:35:39.020Z,63.87
2023-08-15T10:36:39.023Z,63.37
2023-08-15T10:37:39.040Z,61.66
2023-08-15T10:38:39.014Z,62.75
2023-08-15T10:39:39.000Z,62.38
2023-08-15T10:40:38.982Z,62.75
2023-08-15T10:41:38.962Z,61.66
2023-08-15T10:42:38.974Z,61.96
2023-08-15T10:43:39.050Z,62.12
2023-08-15T10:44:38.931Z,62.82
2023-08-15T10:45:38.932Z,62.42
2023-08-15T10:46:38.949Z,63.12
2023-08-15T10:47:39.153Z,61.16
2023-08-15T10:48:44.169Z,62.02
2023-08-15T10:49:39.084Z,61.87
2023-08-15T10:50:38.910Z,60.19
2023-08-15T10:51:38.876Z,59.66
2023-08-15T10:52:38.903Z,59.83
2023-08-15T10:53:38.851Z,58.97
2023-08-15T10:54:38.838Z,59.23
2023-08-15T10:55:38.834Z,58.45
2023-08-15T10:56:38.847Z,59.31
2023-08-15T10:57:38.804Z,61.29
2023-08-15T10:58:41.238Z,61.53
2023-08-15T10:59:38.807Z,56.48
2023-08-15T11:00:38.856Z,54.53
2023-08-15T11:01:39.063Z,55.81
2023-08-15T11:02:38.851Z,55.22
2023-08-15T11:03:38.803Z,56.19
2023-08-15T11:04:40.622Z,58.36
2023-08-15T11:05:38.766Z,58.33
2023-08-15T11:06:38.728Z,55.74
2023-08-15T11:07:38.730Z,55.22
2023-08-15T11:08:38.717Z,54.72
2023-08-15T11:09:38.742Z,55.09
2023-08-15T11:10:40.393Z,54.11
2023-08-15T11:11:38.663Z,55.22
2023-08-15T11:12:38.655Z,55.56
2023-08-15T11:13:38.642Z,54.47
2023-08-15T11:14:38.638Z,55.01
2023-08-15T11:15:38.623Z,54.03
2023-08-15T11:16:38.663Z,54.97
2023-08-15T11:17:38.623Z,57.59
2023-08-15T11:18:38.595Z,56.94
2023-08-15T11:19:38.584Z,56.50
2023-08-15T11:20:38.572Z,57.45
2023-08-15T11:21:38.584Z,58.26
2023-08-15T11:22:38.552Z,57.89
2023-08-15T11:23:38.536Z,59.01
2023-08-15T11:24:38.578Z,57.88
2023-08-15T11:25:38.515Z,58.90
2023-08-15T11:26:38.524Z,59.62
2023-08-15T11:27:38.483Z,61.30
2023-08-15T11:28:38.474Z,62.10
2023-08-15T11:29:38.509Z,60.13
2023-08-15T11:30:38.513Z,58.04
2023-08-15T11:31:38.506Z,56.37
2023-08-15T11:32:38.576Z,55.04
2023-08-15T11:33:38.432Z,53.81
2023-08-15T11:34:38.421Z,55.15
2023-08-15T11:35:38.419Z,56.29
2023-08-15T11:36:38.398Z,56.61
2023-08-15T11:37:38.381Z,58.45
2023-08-15T11:38:38.378Z,58.05
2023-08-15T11:39:38.384Z,58.94
2023-08-15T11:40:38.372Z,57.79
2023-08-15T11:41:38.344Z,55.24
2023-08-15T11:42:38.344Z,55.09
2023-08-15T11:43:38.335Z,53.00
2023-08-15T11:44:38.330Z,53.09
2023-08-15T11:45:38.339Z,53.42
2023-08-15T11:46:53.017Z,53.81
2023-08-15T11:47:38.298Z,53.42
2023-08-15T11:48:38.316Z,52.68
2023-08-15T11:49:46.285Z,54.68
2023-08-15T11:50:44.796Z,54.64
2023-08-15T11:51:38.254Z,54.08
2023-08-15T11:52:38.227Z,54.60
2023-08-15T11:53:38.236Z,52.68
2023-08-15T11:54:38.254Z,54.53
2023-08-15T11:55:38.213Z,55.75
2023-08-15T11:56:38.194Z,57.06
2023-08-15T11:57:38.213Z,57.23
2023-08-15T11:58:38.172Z,56.98
2023-08-15T11:59:38.159Z,56.30
2023-08-15T12:00:38.168Z,53.91
2023-08-15T12:01:38.188Z,53.02
2023-08-15T12:02:38.205Z,53.32
2023-08-15T12:03:38.136Z,53.27
2023-08-15T12:04:38.107Z,52.75
2023-08-15T12:05:38.096Z,54.30
2023-08-15T12:06:38.431Z,53.44
2023-08-15T12:07:38.082Z,52.16
2023-08-15T12:08:38.110Z,52.75
2023-08-15T12:09:38.078Z,51.03
2023-08-15T12:10:39.619Z,52.16
2023-08-15T12:11:38.058Z,53.67
2023-08-15T12:12:38.043Z,53.69
2023-08-15T12:13:38.025Z,53.39
2023-08-15T12:14:49.291Z,53.67
2023-08-15T12:15:38.142Z,55.02
2023-08-15T12:16:38.376Z,54.33
2023-08-15T12:17:37.997Z,55.22
2023-08-15T12:18:37.997Z,54.45
2023-08-15T12:19:37.966Z,51.81
2023-08-15T12:20:37.950Z,52.14
2023-08-15T12:21:37.991Z,53.00
2023-08-15T12:22:37.946Z,53.09
2023-08-15T12:23:37.918Z,53.19
2023-08-15T12:24:37.908Z,52.80
2023-08-15T12:25:37.899Z,52.45
2023-08-15T12:26:37.917Z,52.99
2023-08-15T12:27:37.891Z,53.46
2023-08-15T12:28:37.862Z,51.91
2023-08-15T12:30:11.010Z,52.26
2023-08-15T12:30:37.856Z,52.95
2023-08-15T12:31:38.006Z,51.30
2023-08-15T12:32:37.866Z,51.84
2023-08-15T12:34:37.848Z,52.21
2023-08-15T12:35:37.779Z,54.61
2023-08-15T12:36:37.782Z,55.35
2023-08-15T12:37:37.805Z,56.54
2023-08-15T12:38:37.766Z,55.68
2023-08-15T12:39:37.747Z,56.99
2023-08-15T12:40:37.767Z,57.58
2023-08-15T12:41:37.768Z,58.28
2023-08-15T12:42:37.741Z,58.40
2023-08-15T12:43:37.812Z,58.20
2023-08-15T12:44:37.710Z,59.42
2023-08-15T12:45:37.743Z,61.40
2023-08-15T12:46:37.712Z,59.94
2023-08-15T12:47:37.730Z,60.64
2023-08-15T12:48:37.693Z,61.80
2023-08-15T12:49:37.659Z,61.10
2023-08-15T12:50:37.664Z,62.59
2023-08-15T12:51:37.666Z,63.35
2023-08-15T12:52:37.627Z,65.33
2023-08-15T12:53:37.650Z,61.75
2023-08-15T12:54:37.631Z,58.70